sensor_id;sensor_type;location;lat;lon;timestamp;P1;durP1;ratioP1;P2;durP2;ratioP2
20894;SDS011;10607;42.066;24.742;2023-06-10T00:02:10;5.60;;;3.95;;
20894;SDS011;10607;42.066;24.742;2023-06-10T00:04:35;5.97;;;4.15;;
20894;SDS011;10607;42.066;24.742;2023-06-10T00:07:04;12.48;;;5.00;;
20894;SDS011;10607;42.066;24.742;2023-06-10T00:09:34;8.80;;;4.03;;
20894;SDS011;10607;42.066;24.742;2023-06-10T00:11:59;7.93;;;4.10;;
20894;SDS011;10607;42.066;24.742;2023-06-10T00:14:25;9.73;;;4.85;;
20894;SDS011;10607;42.066;24.742;2023-06-10T00:16:51;5.68;;;4.32;;
20894;SDS011;10607;42.066;24.742;2023-06-10T00:19:17;6.97;;;4.55;;
20894;SDS011;10607;42.066;24.742;2023-06-10T00:21:43;7.32;;;4.55;;
20894;SDS011;10607;42.066;24.742;2023-06-10T00:24:10;14.40;;;4.75;;
20894;SDS011;10607;42.066;24.742;2023-06-10T00:26:37;5.97;;;4.53;;
20894;SDS011;10607;42.066;24.742;2023-06-10T00:29:02;7.45;;;4.70;;
20894;SDS011;10607;42.066;24.742;2023-06-10T00:31:27;11.23;;;4.97;;
20894;SDS011;10607;42.066;24.742;2023-06-10T00:33:53;6.60;;;4.82;;
20894;SDS011;10607;42.066;24.742;2023-06-10T00:36:18;6.63;;;4.57;;
20894;SDS011;10607;42.066;24.742;2023-06-10T00:38:44;5.55;;;4.15;;
20894;SDS011;10607;42.066;24.742;2023-06-10T00:41:09;7.90;;;5.22;;
20894;SDS011;10607;42.066;24.742;2023-06-10T00:43:35;6.82;;;4.65;;
20894;SDS011;10607;42.066;24.742;2023-06-10T00:46:00;9.48;;;4.25;;
20894;SDS011;10607;42.066;24.742;2023-06-10T00:48:25;7.20;;;4.28;;
20894;SDS011;10607;42.066;24.742;2023-06-10T00:50:51;4.97;;;4.20;;
20894;SDS011;10607;42.066;24.742;2023-06-10T00:53:16;7.35;;;4.28;;
20894;SDS011;10607;42.066;24.742;2023-06-10T00:55:41;6.80;;;4.43;;
20894;SDS011;10607;42.066;24.742;2023-06-10T00:58:07;7.00;;;4.30;;
20894;SDS011;10607;42.066;24.742;2023-06-10T01:00:33;9.93;;;4.30;;
20894;SDS011;10607;42.066;24.742;2023-06-10T01:02:58;7.03;;;3.80;;
20894;SDS011;10607;42.066;24.742;2023-06-10T01:05:23;6.00;;;4.20;;
20894;SDS011;10607;42.066;24.742;2023-06-10T01:07:56;9.10;;;4.35;;
20894;SDS011;10607;42.066;24.742;2023-06-10T01:10:33;10.05;;;4.28;;
20894;SDS011;10607;42.066;24.742;2023-06-10T01:12:59;7.70;;;4.35;;
20894;SDS011;10607;42.066;24.742;2023-06-10T01:15:27;8.98;;;4.88;;
20894;SDS011;10607;42.066;24.742;2023-06-10T01:17:57;8.18;;;4.22;;
20894;SDS011;10607;42.066;24.742;2023-06-10T01:20:23;8.77;;;4.00;;
20894;SDS011;10607;42.066;24.742;2023-06-10T01:22:49;7.80;;;4.53;;
20894;SDS011;10607;42.066;24.742;2023-06-10T01:25:15;5.45;;;3.88;;
20894;SDS011;10607;42.066;24.742;2023-06-10T01:27:41;7.72;;;3.88;;
20894;SDS011;10607;42.066;24.742;2023-06-10T01:30:08;5.70;;;4.22;;
20894;SDS011;10607;42.066;24.742;2023-06-10T01:32:45;7.50;;;3.85;;
20894;SDS011;10607;42.066;24.742;2023-06-10T01:35:13;5.93;;;4.30;;
20894;SDS011;10607;42.066;24.742;2023-06-10T01:37:39;6.40;;;4.18;;
20894;SDS011;10607;42.066;24.742;2023-06-10T01:40:05;5.38;;;4.30;;
20894;SDS011;10607;42.066;24.742;2023-06-10T01:42:31;7.30;;;4.97;;
20894;SDS011;10607;42.066;24.742;2023-06-10T01:44:56;5.72;;;4.10;;
20894;SDS011;10607;42.066;24.742;2023-06-10T01:47:22;15.18;;;7.05;;
20894;SDS011;10607;42.066;24.742;2023-06-10T01:49:47;8.25;;;5.10;;
20894;SDS011;10607;42.066;24.742;2023-06-10T01:52:13;8.65;;;4.40;;
20894;SDS011;10607;42.066;24.742;2023-06-10T01:54:38;9.55;;;4.65;;
20894;SDS011;10607;42.066;24.742;2023-06-10T01:57:03;9.40;;;5.88;;
20894;SDS011;10607;42.066;24.742;2023-06-10T01:59:31;6.47;;;4.35;;
20894;SDS011;10607;42.066;24.742;2023-06-10T02:01:56;6.65;;;4.07;;
20894;SDS011;10607;42.066;24.742;2023-06-10T02:04:21;5.93;;;4.28;;
20894;SDS011;10607;42.066;24.742;2023-06-10T02:06:47;6.55;;;3.80;;
20894;SDS011;10607;42.066;24.742;2023-06-10T02:09:13;6.65;;;4.22;;
20894;SDS011;10607;42.066;24.742;2023-06-10T02:11:38;11.30;;;4.03;;
20894;SDS011;10607;42.066;24.742;2023-06-10T02:14:03;5.28;;;3.90;;
20894;SDS011;10607;42.066;24.742;2023-06-10T02:16:29;5.88;;;4.05;;
20894;SDS011;10607;42.066;24.742;2023-06-10T02:18:55;6.32;;;4.30;;
20894;SDS011;10607;42.066;24.742;2023-06-10T02:21:21;7.30;;;4.20;;
20894;SDS011;10607;42.066;24.742;2023-06-10T02:23:46;7.05;;;4.20;;
20894;SDS011;10607;42.066;24.742;2023-06-10T02:26:12;7.97;;;4.05;;
20894;SDS011;10607;42.066;24.742;2023-06-10T02:28:37;5.93;;;3.72;;
20894;SDS011;10607;42.066;24.742;2023-06-10T02:31:02;6.65;;;3.63;;
20894;SDS011;10607;42.066;24.742;2023-06-10T02:33:28;6.13;;;3.47;;
20894;SDS011;10607;42.066;24.742;2023-06-10T02:35:53;6.78;;;4.32;;
20894;SDS011;10607;42.066;24.742;2023-06-10T02:38:18;9.98;;;4.15;;
20894;SDS011;10607;42.066;24.742;2023-06-10T02:40:44;9.70;;;4.38;;
20894;SDS011;10607;42.066;24.742;2023-06-10T02:43:09;7.07;;;4.53;;
20894;SDS011;10607;42.066;24.742;2023-06-10T02:45:34;6.68;;;4.85;;
20894;SDS011;10607;42.066;24.742;2023-06-10T02:48:00;7.82;;;4.85;;
20894;SDS011;10607;42.066;24.742;2023-06-10T02:50:25;4.80;;;4.25;;
20894;SDS011;10607;42.066;24.742;2023-06-10T02:52:50;5.78;;;4.90;;
20894;SDS011;10607;42.066;24.742;2023-06-10T02:55:16;11.65;;;4.70;;
20894;SDS011;10607;42.066;24.742;2023-06-10T02:57:41;10.02;;;4.60;;
20894;SDS011;10607;42.066;24.742;2023-06-10T03:00:06;5.10;;;4.18;;
20894;SDS011;10607;42.066;24.742;2023-06-10T03:02:36;7.47;;;4.95;;
20894;SDS011;10607;42.066;24.742;2023-06-10T03:05:03;8.85;;;4.18;;
20894;SDS011;10607;42.066;24.742;2023-06-10T03:07:29;10.85;;;5.32;;
20894;SDS011;10607;42.066;24.742;2023-06-10T03:09:55;6.22;;;5.28;;
20894;SDS011;10607;42.066;24.742;2023-06-10T03:12:20;9.80;;;4.85;;
20894;SDS011;10607;42.066;24.742;2023-06-10T03:14:45;8.15;;;5.25;;
20894;SDS011;10607;42.066;24.742;2023-06-10T03:17:11;9.60;;;5.90;;
20894;SDS011;10607;42.066;24.742;2023-06-10T03:19:36;10.63;;;5.40;;
20894;SDS011;10607;42.066;24.742;2023-06-10T03:22:13;10.00;;;5.22;;
20894;SDS011;10607;42.066;24.742;2023-06-10T03:24:38;10.90;;;5.35;;
20894;SDS011;10607;42.066;24.742;2023-06-10T03:27:08;10.18;;;5.18;;
20894;SDS011;10607;42.066;24.742;2023-06-10T03:29:34;10.15;;;5.53;;
20894;SDS011;10607;42.066;24.742;2023-06-10T03:32:00;8.43;;;5.18;;
20894;SDS011;10607;42.066;24.742;2023-06-10T03:34:25;11.23;;;5.78;;
20894;SDS011;10607;42.066;24.742;2023-06-10T03:36:50;10.52;;;6.07;;
20894;SDS011;10607;42.066;24.742;2023-06-10T03:39:16;11.02;;;5.82;;
20894;SDS011;10607;42.066;24.742;2023-06-10T03:41:41;9.52;;;5.50;;
20894;SDS011;10607;42.066;24.742;2023-06-10T03:44:06;10.23;;;6.57;;
20894;SDS011;10607;42.066;24.742;2023-06-10T03:46:32;9.18;;;6.32;;
20894;SDS011;10607;42.066;24.742;2023-06-10T03:48:57;8.52;;;6.13;;
20894;SDS011;10607;42.066;24.742;2023-06-10T03:51:25;15.48;;;6.45;;
20894;SDS011;10607;42.066;24.742;2023-06-10T03:53:51;13.00;;;6.60;;
20894;SDS011;10607;42.066;24.742;2023-06-10T03:56:16;10.98;;;6.90;;
20894;SDS011;10607;42.066;24.742;2023-06-10T03:58:41;15.57;;;7.13;;
20894;SDS011;10607;42.066;24.742;2023-06-10T04:01:06;14.00;;;7.30;;
20894;SDS011;10607;42.066;24.742;2023-06-10T04:03:32;12.05;;;7.90;;
20894;SDS011;10607;42.066;24.742;2023-06-10T04:05:57;11.63;;;7.35;;
20894;SDS011;10607;42.066;24.742;2023-06-10T04:08:23;17.58;;;8.73;;
20894;SDS011;10607;42.066;24.742;2023-06-10T04:10:48;11.57;;;7.88;;
20894;SDS011;10607;42.066;24.742;2023-06-10T04:13:14;16.05;;;7.65;;
20894;SDS011;10607;42.066;24.742;2023-06-10T04:15:40;14.80;;;7.35;;
20894;SDS011;10607;42.066;24.742;2023-06-10T04:18:05;13.82;;;8.00;;
20894;SDS011;10607;42.066;24.742;2023-06-10T04:20:31;14.20;;;7.50;;
20894;SDS011;10607;42.066;24.742;2023-06-10T04:22:56;12.63;;;7.85;;
20894;SDS011;10607;42.066;24.742;2023-06-10T04:25:21;15.75;;;7.15;;
20894;SDS011;10607;42.066;24.742;2023-06-10T04:27:47;13.50;;;8.05;;
20894;SDS011;10607;42.066;24.742;2023-06-10T04:30:12;13.88;;;7.15;;
20894;SDS011;10607;42.066;24.742;2023-06-10T04:32:38;17.13;;;7.72;;
20894;SDS011;10607;42.066;24.742;2023-06-10T04:35:03;9.25;;;6.63;;
20894;SDS011;10607;42.066;24.742;2023-06-10T04:37:29;12.25;;;7.03;;
20894;SDS011;10607;42.066;24.742;2023-06-10T04:39:54;10.85;;;6.65;;
20894;SDS011;10607;42.066;24.742;2023-06-10T04:42:19;10.85;;;7.10;;
20894;SDS011;10607;42.066;24.742;2023-06-10T04:44:44;15.35;;;7.72;;
20894;SDS011;10607;42.066;24.742;2023-06-10T04:47:10;12.57;;;7.13;;
20894;SDS011;10607;42.066;24.742;2023-06-10T04:49:35;18.85;;;7.55;;
20894;SDS011;10607;42.066;24.742;2023-06-10T04:52:00;12.95;;;7.28;;
20894;SDS011;10607;42.066;24.742;2023-06-10T04:54:26;11.25;;;6.63;;
20894;SDS011;10607;42.066;24.742;2023-06-10T04:56:51;15.10;;;6.97;;
20894;SDS011;10607;42.066;24.742;2023-06-10T04:59:16;9.13;;;5.72;;
20894;SDS011;10607;42.066;24.742;2023-06-10T05:01:42;11.30;;;5.78;;
20894;SDS011;10607;42.066;24.742;2023-06-10T05:04:07;8.07;;;5.65;;
20894;SDS011;10607;42.066;24.742;2023-06-10T05:06:32;10.32;;;5.57;;
20894;SDS011;10607;42.066;24.742;2023-06-10T05:08:57;9.65;;;5.80;;
20894;SDS011;10607;42.066;24.742;2023-06-10T05:11:23;10.63;;;6.20;;
20894;SDS011;10607;42.066;24.742;2023-06-10T05:13:48;10.55;;;5.20;;
20894;SDS011;10607;42.066;24.742;2023-06-10T05:16:14;8.48;;;4.97;;
20894;SDS011;10607;42.066;24.742;2023-06-10T05:18:40;9.32;;;5.70;;
20894;SDS011;10607;42.066;24.742;2023-06-10T05:21:05;7.63;;;5.57;;
20894;SDS011;10607;42.066;24.742;2023-06-10T05:23:31;8.10;;;5.32;;
20894;SDS011;10607;42.066;24.742;2023-06-10T05:25:56;9.98;;;5.95;;
20894;SDS011;10607;42.066;24.742;2023-06-10T05:28:21;10.85;;;6.28;;
20894;SDS011;10607;42.066;24.742;2023-06-10T05:30:47;8.55;;;6.43;;
20894;SDS011;10607;42.066;24.742;2023-06-10T05:33:12;9.25;;;6.75;;
20894;SDS011;10607;42.066;24.742;2023-06-10T05:35:37;12.50;;;6.70;;
20894;SDS011;10607;42.066;24.742;2023-06-10T05:38:02;14.35;;;7.22;;
20894;SDS011;10607;42.066;24.742;2023-06-10T05:40:28;18.52;;;7.93;;
20894;SDS011;10607;42.066;24.742;2023-06-10T05:42:53;14.80;;;7.57;;
20894;SDS011;10607;42.066;24.742;2023-06-10T05:45:18;13.90;;;7.72;;
20894;SDS011;10607;42.066;24.742;2023-06-10T05:47:44;16.05;;;7.85;;
20894;SDS011;10607;42.066;24.742;2023-06-10T05:50:09;21.98;;;7.72;;
20894;SDS011;10607;42.066;24.742;2023-06-10T05:52:35;16.27;;;7.30;;
20894;SDS011;10607;42.066;24.742;2023-06-10T05:55:01;10.85;;;7.22;;
20894;SDS011;10607;42.066;24.742;2023-06-10T05:57:27;15.27;;;7.40;;
20894;SDS011;10607;42.066;24.742;2023-06-10T05:59:52;16.88;;;7.18;;
20894;SDS011;10607;42.066;24.742;2023-06-10T06:02:17;12.10;;;7.18;;
20894;SDS011;10607;42.066;24.742;2023-06-10T06:04:43;11.80;;;6.68;;
20894;SDS011;10607;42.066;24.742;2023-06-10T06:07:08;19.52;;;7.88;;
20894;SDS011;10607;42.066;24.742;2023-06-10T06:09:33;14.88;;;7.32;;
20894;SDS011;10607;42.066;24.742;2023-06-10T06:11:58;17.15;;;8.15;;
20894;SDS011;10607;42.066;24.742;2023-06-10T06:14:24;12.73;;;7.35;;
20894;SDS011;10607;42.066;24.742;2023-06-10T06:16:49;17.00;;;6.88;;
20894;SDS011;10607;42.066;24.742;2023-06-10T06:19:14;23.00;;;7.50;;
20894;SDS011;10607;42.066;24.742;2023-06-10T06:21:40;12.98;;;6.88;;
20894;SDS011;10607;42.066;24.742;2023-06-10T06:24:06;10.20;;;7.03;;
20894;SDS011;10607;42.066;24.742;2023-06-10T06:26:31;12.70;;;6.32;;
20894;SDS011;10607;42.066;24.742;2023-06-10T06:28:57;10.52;;;7.28;;
20894;SDS011;10607;42.066;24.742;2023-06-10T06:31:22;19.65;;;7.88;;
20894;SDS011;10607;42.066;24.742;2023-06-10T06:33:47;15.18;;;7.90;;
20894;SDS011;10607;42.066;24.742;2023-06-10T06:36:13;14.10;;;7.45;;
20894;SDS011;10607;42.066;24.742;2023-06-10T06:38:38;16.63;;;7.15;;
20894;SDS011;10607;42.066;24.742;2023-06-10T06:41:03;16.42;;;7.60;;
20894;SDS011;10607;42.066;24.742;2023-06-10T06:43:31;14.77;;;7.13;;
20894;SDS011;10607;42.066;24.742;2023-06-10T06:45:57;12.30;;;7.07;;
20894;SDS011;10607;42.066;24.742;2023-06-10T06:48:22;11.27;;;6.72;;
20894;SDS011;10607;42.066;24.742;2023-06-10T06:50:48;15.35;;;7.00;;
20894;SDS011;10607;42.066;24.742;2023-06-10T06:53:13;15.15;;;6.40;;
20894;SDS011;10607;42.066;24.742;2023-06-10T06:55:38;11.52;;;6.63;;
20894;SDS011;10607;42.066;24.742;2023-06-10T06:58:04;14.20;;;6.68;;
20894;SDS011;10607;42.066;24.742;2023-06-10T07:00:30;15.45;;;6.35;;
20894;SDS011;10607;42.066;24.742;2023-06-10T07:02:55;12.20;;;6.13;;
20894;SDS011;10607;42.066;24.742;2023-06-10T07:05:22;16.77;;;6.07;;
20894;SDS011;10607;42.066;24.742;2023-06-10T07:07:47;9.52;;;6.50;;
20894;SDS011;10607;42.066;24.742;2023-06-10T07:10:12;15.00;;;6.25;;
20894;SDS011;10607;42.066;24.742;2023-06-10T07:12:39;11.45;;;6.22;;
20894;SDS011;10607;42.066;24.742;2023-06-10T07:15:05;12.50;;;6.13;;
20894;SDS011;10607;42.066;24.742;2023-06-10T07:17:30;11.45;;;6.25;;
20894;SDS011;10607;42.066;24.742;2023-06-10T07:19:56;12.20;;;5.15;;
20894;SDS011;10607;42.066;24.742;2023-06-10T07:22:22;10.55;;;6.38;;
20894;SDS011;10607;42.066;24.742;2023-06-10T07:24:47;10.15;;;5.35;;
20894;SDS011;10607;42.066;24.742;2023-06-10T07:27:12;9.88;;;5.15;;
20894;SDS011;10607;42.066;24.742;2023-06-10T07:29:38;12.63;;;5.60;;
20894;SDS011;10607;42.066;24.742;2023-06-10T07:32:03;7.00;;;5.32;;
20894;SDS011;10607;42.066;24.742;2023-06-10T07:34:29;14.98;;;5.50;;
20894;SDS011;10607;42.066;24.742;2023-06-10T07:36:54;9.27;;;5.63;;
20894;SDS011;10607;42.066;24.742;2023-06-10T07:39:19;14.07;;;6.07;;
20894;SDS011;10607;42.066;24.742;2023-06-10T07:41:45;8.90;;;5.68;;
20894;SDS011;10607;42.066;24.742;2023-06-10T07:44:10;15.48;;;5.25;;
20894;SDS011;10607;42.066;24.742;2023-06-10T07:46:35;10.18;;;4.88;;
20894;SDS011;10607;42.066;24.742;2023-06-10T07:49:01;13.45;;;5.05;;
20894;SDS011;10607;42.066;24.742;2023-06-10T07:51:27;10.95;;;5.45;;
20894;SDS011;10607;42.066;24.742;2023-06-10T07:53:52;12.10;;;5.93;;
20894;SDS011;10607;42.066;24.742;2023-06-10T07:56:17;6.50;;;5.57;;
20894;SDS011;10607;42.066;24.742;2023-06-10T07:58:43;14.23;;;5.75;;
20894;SDS011;10607;42.066;24.742;2023-06-10T08:01:08;16.52;;;6.68;;
20894;SDS011;10607;42.066;24.742;2023-06-10T08:03:34;9.70;;;5.75;;
20894;SDS011;10607;42.066;24.742;2023-06-10T08:05:59;9.05;;;6.13;;
20894;SDS011;10607;42.066;24.742;2023-06-10T08:08:24;14.10;;;5.78;;
20894;SDS011;10607;42.066;24.742;2023-06-10T08:10:49;9.18;;;5.40;;
20894;SDS011;10607;42.066;24.742;2023-06-10T08:13:15;11.90;;;4.75;;
20894;SDS011;10607;42.066;24.742;2023-06-10T08:15:40;15.43;;;4.93;;
20894;SDS011;10607;42.066;24.742;2023-06-10T08:18:05;6.95;;;4.90;;
20894;SDS011;10607;42.066;24.742;2023-06-10T08:20:31;10.90;;;4.43;;
20894;SDS011;10607;42.066;24.742;2023-06-10T08:22:57;9.93;;;4.93;;
20894;SDS011;10607;42.066;24.742;2023-06-10T08:25:22;8.95;;;4.93;;
20894;SDS011;10607;42.066;24.742;2023-06-10T08:27:48;9.90;;;4.63;;
20894;SDS011;10607;42.066;24.742;2023-06-10T08:30:13;10.00;;;4.90;;
20894;SDS011;10607;42.066;24.742;2023-06-10T08:32:39;7.50;;;4.78;;
20894;SDS011;10607;42.066;24.742;2023-06-10T08:35:04;8.70;;;5.47;;
20894;SDS011;10607;42.066;24.742;2023-06-10T08:37:30;8.18;;;5.07;;
20894;SDS011;10607;42.066;24.742;2023-06-10T08:39:55;10.68;;;5.15;;
20894;SDS011;10607;42.066;24.742;2023-06-10T08:42:34;9.45;;;5.03;;
20894;SDS011;10607;42.066;24.742;2023-06-10T08:45:03;7.90;;;4.57;;
20894;SDS011;10607;42.066;24.742;2023-06-10T08:47:30;15.23;;;4.28;;
20894;SDS011;10607;42.066;24.742;2023-06-10T08:50:04;7.13;;;3.90;;
20894;SDS011;10607;42.066;24.742;2023-06-10T08:52:34;10.70;;;4.22;;
20894;SDS011;10607;42.066;24.742;2023-06-10T08:55:05;10.70;;;5.13;;
20894;SDS011;10607;42.066;24.742;2023-06-10T08:57:33;13.07;;;4.47;;
20894;SDS011;10607;42.066;24.742;2023-06-10T09:00:00;10.20;;;4.68;;
20894;SDS011;10607;42.066;24.742;2023-06-10T09:02:26;6.15;;;4.55;;
20894;SDS011;10607;42.066;24.742;2023-06-10T09:04:52;13.98;;;4.15;;
20894;SDS011;10607;42.066;24.742;2023-06-10T09:07:18;13.18;;;4.18;;
20894;SDS011;10607;42.066;24.742;2023-06-10T09:09:43;10.50;;;4.15;;
20894;SDS011;10607;42.066;24.742;2023-06-10T09:12:10;6.88;;;4.32;;
20894;SDS011;10607;42.066;24.742;2023-06-10T09:14:35;7.78;;;3.88;;
20894;SDS011;10607;42.066;24.742;2023-06-10T09:17:01;9.52;;;4.05;;
20894;SDS011;10607;42.066;24.742;2023-06-10T09:19:26;6.22;;;3.10;;
20894;SDS011;10607;42.066;24.742;2023-06-10T09:21:52;6.45;;;3.75;;
20894;SDS011;10607;42.066;24.742;2023-06-10T09:24:17;9.98;;;3.55;;
20894;SDS011;10607;42.066;24.742;2023-06-10T09:26:43;8.10;;;3.13;;
20894;SDS011;10607;42.066;24.742;2023-06-10T09:29:09;6.80;;;4.05;;
20894;SDS011;10607;42.066;24.742;2023-06-10T09:31:37;4.80;;;3.60;;
20894;SDS011;10607;42.066;24.742;2023-06-10T09:34:12;9.52;;;3.60;;
20894;SDS011;10607;42.066;24.742;2023-06-10T09:36:38;8.82;;;3.38;;
20894;SDS011;10607;42.066;24.742;2023-06-10T09:39:03;9.90;;;3.40;;
20894;SDS011;10607;42.066;24.742;2023-06-10T09:41:32;10.52;;;3.80;;
20894;SDS011;10607;42.066;24.742;2023-06-10T09:43:59;7.57;;;3.88;;
20894;SDS011;10607;42.066;24.742;2023-06-10T09:46:25;8.82;;;3.63;;
20894;SDS011;10607;42.066;24.742;2023-06-10T09:48:55;9.10;;;4.07;;
20894;SDS011;10607;42.066;24.742;2023-06-10T09:51:22;7.45;;;3.75;;
20894;SDS011;10607;42.066;24.742;2023-06-10T09:53:48;7.07;;;3.47;;
20894;SDS011;10607;42.066;24.742;2023-06-10T09:56:15;10.57;;;3.70;;
20894;SDS011;10607;42.066;24.742;2023-06-10T09:58:40;8.25;;;4.10;;
20894;SDS011;10607;42.066;24.742;2023-06-10T10:01:09;5.53;;;3.55;;
20894;SDS011;10607;42.066;24.742;2023-06-10T10:03:42;9.35;;;3.42;;
20894;SDS011;10607;42.066;24.742;2023-06-10T10:06:08;6.72;;;3.70;;
20894;SDS011;10607;42.066;24.742;2023-06-10T10:08:34;8.00;;;3.80;;
20894;SDS011;10607;42.066;24.742;2023-06-10T10:10:59;13.45;;;3.65;;
20894;SDS011;10607;42.066;24.742;2023-06-10T10:13:25;6.68;;;3.92;;
20894;SDS011;10607;42.066;24.742;2023-06-10T10:15:51;5.43;;;3.85;;
20894;SDS011;10607;42.066;24.742;2023-06-10T10:18:17;8.90;;;4.18;;
20894;SDS011;10607;42.066;24.742;2023-06-10T10:20:50;11.63;;;4.18;;
20894;SDS011;10607;42.066;24.742;2023-06-10T10:23:21;6.43;;;3.90;;
20894;SDS011;10607;42.066;24.742;2023-06-10T10:25:51;7.88;;;3.65;;
20894;SDS011;10607;42.066;24.742;2023-06-10T10:28:17;9.63;;;4.57;;
20894;SDS011;10607;42.066;24.742;2023-06-10T10:30:46;7.22;;;3.80;;
20894;SDS011;10607;42.066;24.742;2023-06-10T10:33:13;5.40;;;4.00;;
20894;SDS011;10607;42.066;24.742;2023-06-10T10:35:39;13.95;;;4.50;;
20894;SDS011;10607;42.066;24.742;2023-06-10T10:38:05;9.88;;;4.07;;
20894;SDS011;10607;42.066;24.742;2023-06-10T10:40:31;9.27;;;4.53;;
20894;SDS011;10607;42.066;24.742;2023-06-10T10:42:58;5.03;;;4.18;;
20894;SDS011;10607;42.066;24.742;2023-06-10T10:45:24;9.30;;;4.07;;
20894;SDS011;10607;42.066;24.742;2023-06-10T10:47:52;12.52;;;4.03;;
20894;SDS011;10607;42.066;24.742;2023-06-10T10:50:18;12.90;;;4.70;;
20894;SDS011;10607;42.066;24.742;2023-06-10T10:52:58;10.32;;;4.35;;
20894;SDS011;10607;42.066;24.742;2023-06-10T10:55:24;10.77;;;4.15;;
20894;SDS011;10607;42.066;24.742;2023-06-10T11:00:25;5.90;;;3.95;;
20894;SDS011;10607;42.066;24.742;2023-06-10T11:02:52;14.27;;;4.30;;
20894;SDS011;10607;42.066;24.742;2023-06-10T11:05:19;13.02;;;4.65;;
20894;SDS011;10607;42.066;24.742;2023-06-10T11:07:55;7.85;;;4.07;;
20894;SDS011;10607;42.066;24.742;2023-06-10T11:10:31;7.82;;;4.47;;
20894;SDS011;10607;42.066;24.742;2023-06-10T11:12:57;17.60;;;4.95;;
20894;SDS011;10607;42.066;24.742;2023-06-10T11:15:23;9.98;;;4.03;;
20894;SDS011;10607;42.066;24.742;2023-06-10T11:23:07;10.93;;;4.75;;
20894;SDS011;10607;42.066;24.742;2023-06-10T11:25:38;9.35;;;4.35;;
20894;SDS011;10607;42.066;24.742;2023-06-10T11:28:12;10.93;;;4.80;;
20894;SDS011;10607;42.066;24.742;2023-06-10T11:30:42;11.30;;;4.65;;
20894;SDS011;10607;42.066;24.742;2023-06-10T11:33:07;6.75;;;4.93;;
20894;SDS011;10607;42.066;24.742;2023-06-10T11:35:33;13.00;;;4.80;;
20894;SDS011;10607;42.066;24.742;2023-06-10T11:37:58;8.23;;;4.88;;
20894;SDS011;10607;42.066;24.742;2023-06-10T11:40:24;10.55;;;5.00;;
20894;SDS011;10607;42.066;24.742;2023-06-10T11:42:49;7.75;;;5.00;;
20894;SDS011;10607;42.066;24.742;2023-06-10T11:45:15;12.65;;;5.90;;
20894;SDS011;10607;42.066;24.742;2023-06-10T11:47:41;10.50;;;5.25;;
20894;SDS011;10607;42.066;24.742;2023-06-10T11:50:27;13.07;;;5.60;;
20894;SDS011;10607;42.066;24.742;2023-06-10T11:52:52;13.43;;;5.53;;
20894;SDS011;10607;42.066;24.742;2023-06-10T11:55:20;17.77;;;5.18;;
20894;SDS011;10607;42.066;24.742;2023-06-10T11:57:46;11.88;;;5.85;;
20894;SDS011;10607;42.066;24.742;2023-06-10T12:00:11;14.02;;;6.30;;
20894;SDS011;10607;42.066;24.742;2023-06-10T12:02:37;13.75;;;6.35;;
20894;SDS011;10607;42.066;24.742;2023-06-10T12:05:12;14.90;;;5.85;;
20894;SDS011;10607;42.066;24.742;2023-06-10T12:07:37;16.02;;;6.35;;
20894;SDS011;10607;42.066;24.742;2023-06-10T12:10:02;9.85;;;6.03;;
20894;SDS011;10607;42.066;24.742;2023-06-10T12:12:28;12.98;;;5.70;;
20894;SDS011;10607;42.066;24.742;2023-06-10T12:14:57;17.77;;;5.82;;
20894;SDS011;10607;42.066;24.742;2023-06-10T12:17:44;8.80;;;5.75;;
20894;SDS011;10607;42.066;24.742;2023-06-10T12:20:25;7.05;;;4.85;;
20894;SDS011;10607;42.066;24.742;2023-06-10T12:22:50;11.25;;;4.97;;
20894;SDS011;10607;42.066;24.742;2023-06-10T12:25:16;8.13;;;4.65;;
20894;SDS011;10607;42.066;24.742;2023-06-10T12:27:51;14.15;;;5.30;;
20894;SDS011;10607;42.066;24.742;2023-06-10T12:30:19;12.02;;;5.57;;
20894;SDS011;10607;42.066;24.742;2023-06-10T12:32:46;10.35;;;5.00;;
20894;SDS011;10607;42.066;24.742;2023-06-10T12:35:12;12.05;;;5.82;;
20894;SDS011;10607;42.066;24.742;2023-06-10T12:37:38;7.20;;;4.88;;
20894;SDS011;10607;42.066;24.742;2023-06-10T12:40:04;11.27;;;4.95;;
20894;SDS011;10607;42.066;24.742;2023-06-10T12:42:31;10.00;;;4.82;;
20894;SDS011;10607;42.066;24.742;2023-06-10T12:44:58;6.22;;;4.55;;
20894;SDS011;10607;42.066;24.742;2023-06-10T12:47:32;10.20;;;5.45;;
20894;SDS011;10607;42.066;24.742;2023-06-10T12:49:59;13.20;;;5.13;;
20894;SDS011;10607;42.066;24.742;2023-06-10T12:52:25;10.82;;;4.82;;
20894;SDS011;10607;42.066;24.742;2023-06-10T12:54:50;7.38;;;5.10;;
20894;SDS011;10607;42.066;24.742;2023-06-10T12:57:17;16.05;;;4.97;;
20894;SDS011;10607;42.066;24.742;2023-06-10T12:59:42;6.35;;;4.55;;
20894;SDS011;10607;42.066;24.742;2023-06-10T13:02:14;8.73;;;4.65;;
20894;SDS011;10607;42.066;24.742;2023-06-10T13:04:40;10.65;;;4.97;;
20894;SDS011;10607;42.066;24.742;2023-06-10T13:07:05;10.73;;;5.07;;
20894;SDS011;10607;42.066;24.742;2023-06-10T13:09:31;9.95;;;4.50;;
20894;SDS011;10607;42.066;24.742;2023-06-10T13:11:56;4.72;;;3.97;;
20894;SDS011;10607;42.066;24.742;2023-06-10T13:14:22;9.02;;;4.20;;
20894;SDS011;10607;42.066;24.742;2023-06-10T13:16:47;10.52;;;4.72;;
20894;SDS011;10607;42.066;24.742;2023-06-10T13:19:13;9.20;;;4.25;;
20894;SDS011;10607;42.066;24.742;2023-06-10T13:21:38;9.50;;;4.55;;
20894;SDS011;10607;42.066;24.742;2023-06-10T13:24:03;13.82;;;4.72;;
20894;SDS011;10607;42.066;24.742;2023-06-10T13:26:29;9.98;;;4.63;;
20894;SDS011;10607;42.066;24.742;2023-06-10T13:28:54;7.50;;;4.40;;
20894;SDS011;10607;42.066;24.742;2023-06-10T13:31:20;7.80;;;4.63;;
20894;SDS011;10607;42.066;24.742;2023-06-10T13:33:46;5.03;;;4.28;;
20894;SDS011;10607;42.066;24.742;2023-06-10T13:36:12;12.20;;;4.28;;
20894;SDS011;10607;42.066;24.742;2023-06-10T13:38:37;5.43;;;3.78;;
20894;SDS011;10607;42.066;24.742;2023-06-10T13:41:03;7.63;;;3.75;;
20894;SDS011;10607;42.066;24.742;2023-06-10T13:43:28;5.97;;;4.07;;
20894;SDS011;10607;42.066;24.742;2023-06-10T13:45:54;9.05;;;3.92;;
20894;SDS011;10607;42.066;24.742;2023-06-10T13:48:19;6.85;;;4.13;;
20894;SDS011;10607;42.066;24.742;2023-06-10T13:50:45;6.25;;;3.58;;
20894;SDS011;10607;42.066;24.742;2023-06-10T13:53:11;4.47;;;3.50;;
20894;SDS011;10607;42.066;24.742;2023-06-10T13:55:36;13.73;;;3.63;;
20894;SDS011;10607;42.066;24.742;2023-06-10T13:58:01;8.80;;;3.53;;
20894;SDS011;10607;42.066;24.742;2023-06-10T14:00:27;5.93;;;3.13;;
20894;SDS011;10607;42.066;24.742;2023-06-10T14:02:53;10.90;;;3.60;;
20894;SDS011;10607;42.066;24.742;2023-06-10T14:05:18;8.20;;;3.50;;
20894;SDS011;10607;42.066;24.742;2023-06-10T14:07:43;6.63;;;3.63;;
20894;SDS011;10607;42.066;24.742;2023-06-10T14:10:09;5.95;;;3.20;;
20894;SDS011;10607;42.066;24.742;2023-06-10T14:12:34;6.85;;;3.67;;
20894;SDS011;10607;42.066;24.742;2023-06-10T14:15:00;4.53;;;3.55;;
20894;SDS011;10607;42.066;24.742;2023-06-10T14:17:25;4.20;;;2.95;;
20894;SDS011;10607;42.066;24.742;2023-06-10T14:19:50;8.48;;;3.05;;
20894;SDS011;10607;42.066;24.742;2023-06-10T14:22:16;8.25;;;3.88;;
20894;SDS011;10607;42.066;24.742;2023-06-10T14:24:41;8.48;;;3.20;;
20894;SDS011;10607;42.066;24.742;2023-06-10T14:27:06;6.95;;;3.78;;
20894;SDS011;10607;42.066;24.742;2023-06-10T14:29:32;6.88;;;3.67;;
20894;SDS011;10607;42.066;24.742;2023-06-10T14:31:58;5.13;;;3.63;;